createdAt,value
2019-02-02T00:01:12.024Z,94842.16
2019-02-02T00:03:41.422Z,94819.55
2019-02-02T00:06:10.712Z,94809.94
2019-02-02T00:08:40.103Z,94818.87
2019-02-02T00:11:09.466Z,94818.63
2019-02-02T00:13:38.854Z,94825.89
2019-02-02T00:16:08.247Z,94828.72
2019-02-02T00:18:37.544Z,94816.84
2019-02-02T00:21:06.937Z,94822.77
2019-02-02T00:23:36.303Z,94820.73
2019-02-02T00:26:05.763Z,94823.91
2019-02-02T00:28:35.128Z,94833.00
2019-02-02T00:31:04.588Z,94812.33
2019-02-02T00:33:33.966Z,94821.44
2019-02-02T00:36:03.280Z,94817.61
2019-02-02T00:38:32.596Z,94815.97
2019-02-02T00:41:01.882Z,94807.19
2019-02-02T00:43:31.344Z,94813.35
2019-02-02T00:46:00.667Z,94818.11
2019-02-02T00:48:30.028Z,94829.03
2019-02-02T00:50:59.420Z,94815.22
2019-02-02T00:53:28.781Z,94828.02
2019-02-02T00:55:58.164Z,94816.58
2019-02-02T00:58:27.555Z,94827.47
2019-02-02T01:00:56.919Z,94829.72
2019-02-02T01:03:26.232Z,94826.95
2019-02-02T01:05:55.555Z,94803.84
2019-02-02T01:08:24.854Z,94810.20
2019-02-02T01:10:54.172Z,94810.69
2019-02-02T01:13:23.560Z,94809.06
2019-02-02T01:15:52.934Z,94811.77
2019-02-02T01:18:22.332Z,94824.03
2019-02-02T01:20:51.627Z,94829.80
2019-02-02T01:23:20.955Z,94830.81
2019-02-02T01:25:50.249Z,94801.48
2019-02-02T01:28:19.545Z,94811.91
2019-02-02T01:30:48.951Z,94823.70
2019-02-02T01:33:18.248Z,94796.31
2019-02-02T01:35:47.682Z,94805.23
2019-02-02T01:38:17.081Z,94794.23
2019-02-02T01:40:46.464Z,94792.28
2019-02-02T01:43:15.770Z,94822.38
2019-02-02T01:45:45.216Z,94789.78
2019-02-02T01:48:14.657Z,94799.97
2019-02-02T01:50:43.975Z,94812.59
2019-02-02T01:53:13.363Z,94786.40
2019-02-02T01:55:42.791Z,94809.63
2019-02-02T01:58:16.825Z,94770.62
2019-02-02T02:00:43.208Z,94793.80
2019-02-02T02:03:12.585Z,94797.52
2019-02-02T02:05:41.895Z,94773.33
2019-02-02T02:08:11.255Z,94793.23
2019-02-02T02:10:40.586Z,94796.56
2019-02-02T02:13:09.874Z,94786.02
2019-02-02T02:15:39.207Z,94791.30
2019-02-02T02:18:08.526Z,94791.11
2019-02-02T02:20:37.901Z,94803.68
2019-02-02T02:23:07.209Z,94785.95
2019-02-02T02:25:36.513Z,94778.41
2019-02-02T02:28:05.898Z,94784.83
2019-02-02T02:30:35.293Z,94783.44
2019-02-02T02:33:04.652Z,94793.96
2019-02-02T02:35:34.051Z,94786.08
2019-02-02T02:38:03.417Z,94779.24
2019-02-02T02:40:32.709Z,94793.45
2019-02-02T02:43:02.026Z,94784.70
2019-02-02T02:45:31.418Z,94797.89
2019-02-02T02:48:00.780Z,94798.38
2019-02-02T02:50:30.101Z,94793.72
2019-02-02T02:52:59.432Z,94796.94
2019-02-02T02:55:28.803Z,94807.12
2019-02-02T02:57:58.093Z,94799.34
2019-02-02T03:00:30.097Z,94795.50
2019-02-02T03:02:59.450Z,94801.73
2019-02-02T03:05:29.232Z,94798.28
2019-02-02T03:07:58.595Z,94804.80
2019-02-02T03:10:27.909Z,94808.20
2019-02-02T03:12:57.282Z,94805.10
2019-02-02T03:15:26.670Z,94798.14
2019-02-02T03:17:56.038Z,94805.29
2019-02-02T03:20:25.369Z,94802.71
2019-02-02T03:22:54.656Z,94799.95
2019-02-02T03:25:26.186Z,94805.53
2019-02-02T03:27:55.588Z,94807.38
2019-02-02T03:30:24.929Z,94808.60
2019-02-02T03:32:54.222Z,94808.23
2019-02-02T03:35:24.763Z,94816.77
2019-02-02T03:37:54.086Z,94813.88
2019-02-02T03:40:24.397Z,94810.44
2019-02-02T03:42:54.005Z,94816.92
2019-02-02T03:45:24.838Z,94826.34
2019-02-02T03:47:54.882Z,94819.16
2019-02-02T03:50:24.365Z,94809.13
2019-02-02T03:52:53.793Z,94822.56
2019-02-02T03:55:23.164Z,94831.21
2019-02-02T03:57:52.462Z,94812.38
2019-02-02T04:00:24.516Z,94808.59
2019-02-02T04:02:53.805Z,94824.31
2019-02-02T04:05:29.808Z,94821.98
2019-02-02T04:07:59.198Z,94807.34
2019-02-02T04:10:28.615Z,94801.81
2019-02-02T04:12:57.985Z,94814.00
2019-02-02T04:15:27.284Z,94817.69
2019-02-02T04:17:56.677Z,94821.83
2019-02-02T04:20:25.967Z,94824.38
2019-02-02T04:22:55.278Z,94839.78
2019-02-02T04:25:24.593Z,94836.06
2019-02-02T04:27:53.957Z,94813.11
2019-02-02T04:30:27.628Z,94815.84
2019-02-02T04:32:57.013Z,94819.41
2019-02-02T04:35:26.334Z,94833.13
2019-02-02T04:37:55.623Z,94817.28
2019-02-02T04:40:25.085Z,94823.11
2019-02-02T04:42:54.375Z,94825.16
2019-02-02T04:45:23.717Z,94834.22
2019-02-02T04:47:53.012Z,94833.20
2019-02-02T04:50:22.673Z,94834.41
2019-02-02T04:52:52.066Z,94821.92
2019-02-02T04:55:21.394Z,94836.98
2019-02-02T04:57:50.699Z,94822.22
2019-02-02T05:00:27.966Z,94830.50
2019-02-02T05:02:57.412Z,94830.08
2019-02-02T05:05:26.726Z,94824.50
2019-02-02T05:07:56.087Z,94822.59
2019-02-02T05:10:25.671Z,94833.98
2019-02-02T05:12:55.007Z,94827.44
2019-02-02T05:15:24.369Z,94808.27
2019-02-02T05:17:53.679Z,94813.77
2019-02-02T05:20:23.000Z,94821.48
2019-02-02T05:22:52.294Z,94822.81
2019-02-02T05:25:21.720Z,94830.18
2019-02-02T05:27:51.178Z,94821.06
2019-02-02T05:30:24.204Z,94823.11
2019-02-02T05:32:53.496Z,94837.94
2019-02-02T05:35:22.816Z,94833.52
2019-02-02T05:37:52.207Z,94817.48
2019-02-02T05:40:23.217Z,94823.52
2019-02-02T05:42:52.604Z,94818.02
2019-02-02T05:45:23.702Z,94829.28
2019-02-02T05:47:53.152Z,94828.98
2019-02-02T05:50:23.909Z,94829.22
2019-02-02T05:52:53.498Z,94841.04
2019-02-02T05:55:23.931Z,94856.75
2019-02-02T05:57:53.246Z,94840.39
2019-02-02T06:00:30.376Z,94823.48
2019-02-02T06:02:59.700Z,94828.94
2019-02-02T06:05:29.085Z,94833.91
2019-02-02T06:07:58.377Z,94838.00
2019-02-02T06:10:27.836Z,94827.73
2019-02-02T06:12:57.148Z,94825.70
2019-02-02T06:15:28.576Z,94816.47
2019-02-02T06:17:57.892Z,94815.44
2019-02-02T06:20:27.285Z,94825.70
2019-02-02T06:22:56.609Z,94836.31
2019-02-02T06:25:25.986Z,94838.48
2019-02-02T06:27:55.308Z,94833.50
2019-02-02T06:30:25.915Z,94827.42
2019-02-02T06:32:55.230Z,94833.69
2019-02-02T06:35:24.572Z,94825.51
2019-02-02T06:37:53.919Z,94824.07
2019-02-02T06:40:23.208Z,94833.17
2019-02-02T06:42:52.551Z,94838.36
2019-02-02T06:45:29.376Z,94842.55
2019-02-02T06:47:58.672Z,94843.51
2019-02-02T06:50:28.047Z,94849.53
2019-02-02T06:52:58.147Z,94849.45
2019-02-02T06:55:27.607Z,94854.27
2019-02-02T06:57:57.038Z,94857.98
2019-02-02T07:00:29.428Z,94846.46
2019-02-02T07:02:58.714Z,94842.14
2019-02-02T07:05:28.242Z,94840.16
2019-02-02T07:07:57.635Z,94846.28
2019-02-02T07:10:29.434Z,94855.48
2019-02-02T07:12:58.747Z,94859.66
2019-02-02T07:15:30.455Z,94851.62
2019-02-02T07:17:59.767Z,94858.58
2019-02-02T07:20:29.192Z,94847.27
2019-02-02T07:22:58.507Z,94851.52
2019-02-02T07:25:27.797Z,94853.39
2019-02-02T07:27:57.088Z,94851.92
2019-02-02T07:30:29.463Z,94855.05
2019-02-02T07:32:57.732Z,94865.55
2019-02-02T07:35:27.052Z,94851.58
2019-02-02T07:37:56.343Z,94853.98
2019-02-02T07:40:25.658Z,94865.28
2019-02-02T07:42:55.025Z,94859.16
2019-02-02T07:45:32.355Z,94861.11
2019-02-02T07:48:01.652Z,94871.64
2019-02-02T07:50:31.034Z,94884.60
2019-02-02T07:53:00.423Z,94875.38
2019-02-02T07:55:29.858Z,94875.49
2019-02-02T07:57:59.166Z,94871.98
2019-02-02T08:00:40.526Z,94883.61
2019-02-02T08:03:02.828Z,94879.42
2019-02-02T08:05:32.203Z,94873.00
2019-02-02T08:08:01.499Z,94887.47
2019-02-02T08:10:30.820Z,94878.59
2019-02-02T08:13:00.132Z,94881.95
2019-02-02T08:15:32.389Z,94885.38
2019-02-02T08:18:01.683Z,94889.42
2019-02-02T08:20:31.072Z,94894.06
2019-02-02T08:23:00.433Z,94890.25
2019-02-02T08:25:29.764Z,94897.14
2019-02-02T08:27:59.170Z,94890.25
2019-02-02T08:30:35.563Z,94896.98
2019-02-02T08:33:04.755Z,94899.56
2019-02-02T08:35:34.112Z,94888.98
2019-02-02T08:38:03.432Z,94891.66
2019-02-02T08:40:32.730Z,94882.00
2019-02-02T08:43:02.116Z,94885.47
2019-02-02T08:45:31.416Z,94888.22
2019-02-02T08:48:00.736Z,94892.27
2019-02-02T08:50:37.483Z,94895.86
2019-02-02T08:53:06.809Z,94898.48
2019-02-02T08:55:36.171Z,94890.27
2019-02-02T08:58:05.487Z,94895.95
2019-02-02T09:00:34.878Z,94903.50
2019-02-02T09:03:04.216Z,94887.41
2019-02-02T09:05:33.513Z,94895.54
2019-02-02T09:08:02.871Z,94894.61
2019-02-02T09:10:32.188Z,94906.84
2019-02-02T09:13:01.516Z,94907.17
2019-02-02T09:15:30.798Z,94909.59
2019-02-02T09:18:00.255Z,94923.27
2019-02-02T09:20:29.685Z,94928.67
2019-02-02T09:23:05.924Z,94928.08
2019-02-02T09:25:30.035Z,94922.44
2019-02-02T09:27:59.335Z,94921.73
2019-02-02T09:30:33.230Z,94931.63
2019-02-02T09:33:02.516Z,94943.05
2019-02-02T09:35:31.871Z,94944.38
2019-02-02T09:38:01.225Z,94941.50
2019-02-02T09:40:30.591Z,94926.71
2019-02-02T09:42:59.985Z,94926.75
2019-02-02T09:45:29.260Z,94948.59
2019-02-02T09:47:58.650Z,94961.09
2019-02-02T09:50:28.373Z,94936.95
2019-02-02T09:52:57.737Z,94957.67
2019-02-02T09:55:27.526Z,94953.39
2019-02-02T09:58:01.127Z,94954.52
2019-02-02T10:00:32.955Z,94957.54
2019-02-02T10:03:02.327Z,94964.44
2019-02-02T10:05:32.354Z,94965.42
2019-02-02T10:08:01.683Z,94960.48
2019-02-02T10:10:35.081Z,94959.02
2019-02-02T10:13:05.087Z,94966.63
2019-02-02T10:15:34.375Z,94964.34
2019-02-02T10:18:03.669Z,94962.84
2019-02-02T10:20:32.999Z,94963.66
2019-02-02T10:23:02.379Z,94972.41
2019-02-02T10:25:32.520Z,94980.94
2019-02-02T10:28:01.839Z,94982.12
2019-02-02T10:30:37.259Z,94991.48
2019-02-02T10:33:07.054Z,94997.16
2019-02-02T10:35:36.376Z,94997.11
2019-02-02T10:38:06.477Z,94984.12
2019-02-02T10:40:35.797Z,94976.98
2019-02-02T10:43:05.466Z,94992.52
2019-02-02T10:45:34.756Z,94999.70
2019-02-02T10:48:05.738Z,94993.41
2019-02-02T10:50:35.100Z,95002.03
2019-02-02T10:53:04.590Z,95007.19
2019-02-02T10:55:34.844Z,95001.31
2019-02-02T10:58:04.438Z,94994.14
2019-02-02T11:00:39.515Z,95008.34
2019-02-02T11:03:08.897Z,95010.63
2019-02-02T11:05:38.405Z,95005.22
2019-02-02T11:08:07.870Z,95016.77
2019-02-02T11:10:37.375Z,95017.16
2019-02-02T11:13:07.068Z,95028.56
2019-02-02T11:15:36.422Z,95038.94
2019-02-02T11:18:06.173Z,95021.77
2019-02-02T11:20:37.636Z,95018.00
2019-02-02T11:23:07.201Z,95015.91
2019-02-02T11:25:36.553Z,95018.32
2019-02-02T11:28:05.906Z,95018.25
2019-02-02T11:30:35.434Z,95019.72
2019-02-02T11:33:04.827Z,95010.33
2019-02-02T11:35:34.220Z,95004.12
2019-02-02T11:38:03.519Z,94999.36
2019-02-02T11:40:34.953Z,94984.19
2019-02-02T11:43:04.568Z,94988.38
2019-02-02T11:45:33.907Z,94991.17
2019-02-02T11:48:03.233Z,94993.63
2019-02-02T11:50:32.674Z,94975.64
2019-02-02T11:53:02.065Z,94979.17
2019-02-02T11:55:31.391Z,94994.20
2019-02-02T11:58:00.822Z,94984.22
2019-02-02T12:00:39.394Z,94984.72
2019-02-02T12:03:08.869Z,94989.56
2019-02-02T12:05:38.191Z,94986.55
2019-02-02T12:08:07.661Z,94982.86
2019-02-02T12:10:37.265Z,94970.33
2019-02-02T12:13:06.734Z,94963.83
2019-02-02T12:15:36.128Z,94967.27
2019-02-02T12:18:06.373Z,94967.59
2019-02-02T12:20:35.905Z,94964.81
2019-02-02T12:23:05.310Z,94962.56
2019-02-02T12:25:34.716Z,94970.64
2019-02-02T12:28:04.726Z,94971.41
2019-02-02T12:30:35.596Z,94973.68
2019-02-02T12:33:05.435Z,94963.84
2019-02-02T12:35:34.769Z,94964.72
2019-02-02T12:38:04.074Z,94964.15
2019-02-02T12:40:33.467Z,94970.98
2019-02-02T12:43:02.863Z,94970.91
2019-02-02T12:45:42.461Z,94979.25
2019-02-02T12:48:11.861Z,94986.84
2019-02-02T12:50:41.306Z,94992.55
2019-02-02T12:53:10.641Z,94989.80
2019-02-02T12:55:39.934Z,94990.66
2019-02-02T12:58:09.335Z,94994.06
2019-02-02T13:00:38.740Z,94988.74
2019-02-02T13:03:08.127Z,94984.33
2019-02-02T13:05:39.287Z,94979.20
2019-02-02T13:08:08.549Z,94980.47
2019-02-02T13:10:37.862Z,94982.88
2019-02-02T13:13:07.158Z,94983.88
2019-02-02T13:15:36.555Z,94992.40
2019-02-02T13:18:05.949Z,94977.05
2019-02-02T13:20:35.249Z,94977.51
2019-02-02T13:23:04.643Z,94985.41
2019-02-02T13:25:33.939Z,94988.56
2019-02-02T13:28:03.397Z,94994.13
2019-02-02T13:30:35.988Z,94999.77
2019-02-02T13:33:05.588Z,94993.19
2019-02-02T13:35:37.630Z,94986.92
2019-02-02T13:38:07.104Z,94997.20
2019-02-02T13:40:36.427Z,94995.00
2019-02-02T13:43:05.791Z,95004.20
2019-02-02T13:45:35.321Z,95001.53
2019-02-02T13:48:05.496Z,94997.48
2019-02-02T13:50:34.889Z,95002.09
2019-02-02T13:53:06.121Z,94993.94
2019-02-02T13:55:35.484Z,94990.42
2019-02-02T13:58:04.918Z,94988.53
2019-02-02T14:00:35.380Z,94989.52
2019-02-02T14:03:04.747Z,94986.06
2019-02-02T14:05:34.220Z,94984.17
2019-02-02T14:08:03.592Z,94990.78
2019-02-02T14:10:34.900Z,94994.92
2019-02-02T14:13:04.376Z,94990.04
2019-02-02T14:15:33.900Z,95001.61
2019-02-02T14:18:03.294Z,95007.36
2019-02-02T14:20:32.624Z,95009.87
2019-02-02T14:23:01.984Z,95016.78
2019-02-02T14:25:31.391Z,95022.09
2019-02-02T14:28:00.699Z,95029.30
2019-02-02T14:30:30.030Z,95034.84
2019-02-02T14:32:59.430Z,95042.04
2019-02-02T14:35:29.094Z,95050.34
2019-02-02T14:37:58.422Z,95050.08
2019-02-02T14:40:27.816Z,95056.11
2019-02-02T14:42:57.179Z,95059.49
2019-02-02T14:45:27.999Z,95059.77
2019-02-02T14:47:57.452Z,95060.17
2019-02-02T14:50:26.820Z,95058.94
2019-02-02T14:52:56.288Z,95050.95
2019-02-02T14:55:30.279Z,95053.29
2019-02-02T14:57:59.682Z,95050.70
2019-02-02T15:00:30.805Z,95057.08
2019-02-02T15:03:03.089Z,95053.34
2019-02-02T15:05:42.185Z,95060.00
2019-02-02T15:08:02.208Z,95054.37
2019-02-02T15:10:31.641Z,95054.56
2019-02-02T15:13:01.036Z,95055.21
2019-02-02T15:15:30.383Z,95050.42
2019-02-02T15:17:59.683Z,95053.66
2019-02-02T15:20:35.147Z,95067.16
2019-02-02T15:23:04.716Z,95063.73
2019-02-02T15:25:34.062Z,95065.98
2019-02-02T15:28:03.352Z,95070.08
2019-02-02T15:30:36.252Z,95069.73
2019-02-02T15:33:06.481Z,95082.30
2019-02-02T15:35:35.937Z,95082.69
2019-02-02T15:38:05.311Z,95082.36
2019-02-02T15:40:34.772Z,95087.19
2019-02-02T15:43:04.087Z,95094.80
2019-02-02T15:45:33.724Z,95097.72
2019-02-02T15:48:03.113Z,95099.83
2019-02-02T15:50:32.402Z,95100.77
2019-02-02T15:53:01.817Z,95104.18
2019-02-02T15:55:31.226Z,95115.66
2019-02-02T15:58:00.627Z,95121.77
2019-02-02T16:00:34.167Z,95114.33
2019-02-02T16:03:03.528Z,95107.41
2019-02-02T16:05:33.677Z,95109.15
2019-02-02T16:08:07.264Z,95103.45
2019-02-02T16:10:36.556Z,95109.84
2019-02-02T16:13:05.871Z,95109.46
2019-02-02T16:15:35.199Z,95109.03
2019-02-02T16:18:04.852Z,95108.98
2019-02-02T16:20:42.168Z,95100.64
2019-02-02T16:23:11.770Z,95099.13
2019-02-02T16:25:41.116Z,95106.98
2019-02-02T16:28:10.553Z,95110.03
2019-02-02T16:30:40.006Z,95112.40
2019-02-02T16:33:09.400Z,95122.75
2019-02-02T16:35:38.802Z,95123.94
2019-02-02T16:38:08.160Z,95133.39
2019-02-02T16:40:39.906Z,95132.77
2019-02-02T16:43:09.297Z,95138.02
2019-02-02T16:45:38.584Z,95142.69
2019-02-02T16:48:07.902Z,95148.20
2019-02-02T16:50:37.220Z,95151.79
2019-02-02T16:53:06.614Z,95146.67
2019-02-02T16:55:36.010Z,95153.27
2019-02-02T16:58:05.492Z,95157.88
2019-02-02T17:00:35.332Z,95159.86
2019-02-02T17:03:04.708Z,95166.58
2019-02-02T17:05:34.106Z,95171.20
2019-02-02T17:08:03.433Z,95183.75
2019-02-02T17:10:35.433Z,95177.72
2019-02-02T17:13:05.342Z,95181.41
2019-02-02T17:15:34.797Z,95183.66
2019-02-02T17:18:04.626Z,95189.96
2019-02-02T17:20:37.882Z,95191.58
2019-02-02T17:23:07.163Z,95193.00
2019-02-02T17:25:36.565Z,95184.34
2019-02-02T17:28:06.791Z,95186.08
2019-02-02T17:30:36.076Z,95187.11
2019-02-02T17:33:11.994Z,95190.06
2019-02-02T17:35:41.350Z,95192.91
2019-02-02T17:38:10.664Z,95197.84
2019-02-02T17:40:40.093Z,95194.34
2019-02-02T17:43:09.405Z,95203.45
2019-02-02T17:45:38.801Z,95203.05
2019-02-02T17:48:08.159Z,95212.39
2019-02-02T17:50:37.454Z,95209.98
2019-02-02T17:53:06.776Z,95211.11
2019-02-02T17:55:36.137Z,95212.34
2019-02-02T17:58:05.702Z,95211.95
2019-02-02T18:00:42.714Z,95211.83
2019-02-02T18:03:12.087Z,95209.36
2019-02-02T18:05:41.675Z,95214.16
2019-02-02T18:08:11.145Z,95209.36
2019-02-02T18:10:40.541Z,95202.11
2019-02-02T18:13:09.836Z,95209.75
2019-02-02T18:15:39.828Z,95204.05
2019-02-02T18:18:09.341Z,95208.02
2019-02-02T18:20:38.663Z,95205.38
2019-02-02T18:23:08.062Z,95209.03
2019-02-02T18:25:37.363Z,95207.01
2019-02-02T18:28:06.914Z,95200.75
2019-02-02T18:30:36.354Z,95201.64
2019-02-02T18:33:05.673Z,95201.95
2019-02-02T18:35:35.025Z,95200.84
2019-02-02T18:38:04.406Z,95201.86
2019-02-02T18:40:33.730Z,95202.18
2019-02-02T18:43:03.089Z,95197.00
2019-02-02T18:45:32.452Z,95204.08
2019-02-02T18:48:01.835Z,95194.07
2019-02-02T18:50:31.298Z,95189.79
2019-02-02T18:53:01.140Z,95188.16
2019-02-02T18:55:50.508Z,95189.05
2019-02-02T18:58:19.830Z,95194.88
2019-02-02T19:00:49.322Z,95198.34
2019-02-02T19:03:18.646Z,95189.97
2019-02-02T19:05:47.980Z,95186.81
2019-02-02T19:08:17.369Z,95188.14
2019-02-02T19:10:46.679Z,95184.56
2019-02-02T19:13:15.970Z,95185.61
2019-02-02T19:15:45.291Z,95188.84
2019-02-02T19:18:14.622Z,95179.55
2019-02-02T19:20:43.980Z,95169.25
2019-02-02T19:23:24.304Z,95169.75
2019-02-02T19:25:44.340Z,95170.45
2019-02-02T19:28:13.727Z,95166.86
2019-02-02T19:30:43.091Z,95168.02
2019-02-02T19:33:12.482Z,95162.01
2019-02-02T19:35:41.822Z,95159.34
2019-02-02T19:38:11.128Z,95152.72
2019-02-02T19:40:40.423Z,95150.05
2019-02-02T19:43:09.745Z,95154.77
2019-02-02T19:45:39.049Z,95159.44
2019-02-02T19:48:08.364Z,95165.36
2019-02-02T19:50:37.661Z,95166.09
2019-02-02T19:53:07.049Z,95161.15
2019-02-02T19:55:36.429Z,95156.78
2019-02-02T19:58:06.084Z,95161.57
2019-02-02T20:00:36.367Z,95161.16
2019-02-02T20:03:05.895Z,95150.44
2019-02-02T20:05:35.508Z,95149.42
2019-02-02T20:08:04.972Z,95158.31
2019-02-02T20:10:34.262Z,95155.45
2019-02-02T20:13:03.645Z,95146.56
2019-02-02T20:15:33.100Z,95140.67
2019-02-02T20:18:09.826Z,95141.38
2019-02-02T20:20:33.472Z,95144.63
2019-02-02T20:23:02.763Z,95141.58
2019-02-02T20:25:32.089Z,95148.02
2019-02-02T20:28:01.551Z,95147.08
2019-02-02T20:30:32.639Z,95141.38
2019-02-02T20:33:01.962Z,95141.88
2019-02-02T20:35:40.813Z,95133.70
2019-02-02T20:38:02.641Z,95149.30
2019-02-02T20:40:31.928Z,95137.86
2019-02-02T20:43:01.358Z,95143.89
2019-02-02T20:45:38.920Z,95158.61
2019-02-02T20:48:08.216Z,95145.34
2019-02-02T20:50:37.604Z,95152.05
2019-02-02T20:53:06.989Z,95146.15
2019-02-02T20:55:43.076Z,95145.34
2019-02-02T20:58:12.504Z,95146.96
2019-02-02T21:00:41.906Z,95139.11
2019-02-02T21:03:11.276Z,95140.87
2019-02-02T21:05:51.562Z,95148.52
2019-02-02T21:08:11.667Z,95158.38
2019-02-02T21:10:41.027Z,95145.52
2019-02-02T21:13:10.418Z,95140.22
2019-02-02T21:15:39.858Z,95134.72
2019-02-02T21:18:11.818Z,95128.78
2019-02-02T21:20:40.152Z,95141.45
2019-02-02T21:23:09.448Z,95149.49
2019-02-02T21:25:38.766Z,95141.73
2019-02-02T21:28:08.046Z,95148.08
2019-02-02T21:30:37.379Z,95143.57
2019-02-02T21:33:07.084Z,95134.70
2019-02-02T21:35:36.577Z,95170.20
2019-02-02T21:38:05.981Z,95164.69
2019-02-02T21:40:36.242Z,95161.62
2019-02-02T21:43:06.427Z,95162.86
2019-02-02T21:45:36.124Z,95160.02
2019-02-02T21:48:05.753Z,95159.91
2019-02-02T21:50:35.147Z,95148.16
2019-02-02T21:53:04.445Z,95156.14
2019-02-02T21:55:33.763Z,95160.66
2019-02-02T21:58:03.126Z,95167.67
2019-02-02T22:00:41.559Z,95156.84
2019-02-02T22:03:10.953Z,95150.53
2019-02-02T22:05:40.274Z,95152.64
2019-02-02T22:08:09.562Z,95153.17
2019-02-02T22:10:39.261Z,95158.77
2019-02-02T22:13:08.556Z,95151.53
2019-02-02T22:15:37.879Z,95168.29
2019-02-02T22:18:07.182Z,95162.43
2019-02-02T22:20:36.581Z,95148.41
2019-02-02T22:23:05.942Z,95141.55
2019-02-02T22:25:35.259Z,95151.76
2019-02-02T22:28:04.559Z,95160.61
2019-02-02T22:30:38.675Z,95169.90
2019-02-02T22:33:07.972Z,95158.19
2019-02-02T22:35:37.292Z,95128.70
2019-02-02T22:38:06.610Z,95131.31
2019-02-02T22:40:36.005Z,95143.52
2019-02-02T22:43:05.638Z,95149.86
2019-02-02T22:45:34.999Z,95162.30
2019-02-02T22:48:04.704Z,95145.02
2019-02-02T22:50:34.094Z,95148.22
2019-02-02T22:53:03.454Z,95157.98
2019-02-02T22:55:32.780Z,95145.88
2019-02-02T22:58:02.140Z,95130.43
2019-02-02T23:00:50.509Z,95108.89
2019-02-02T23:03:30.129Z,95138.33
2019-02-02T23:06:38.910Z,95143.05
2019-02-02T23:09:40.106Z,95145.42
2019-02-02T23:12:35.476Z,95131.28
2019-02-02T23:15:27.312Z,95134.61
2019-02-02T23:17:56.699Z,95138.00
2019-02-02T23:20:26.023Z,95142.80
2019-02-02T23:22:55.390Z,95140.87
2019-02-02T23:25:24.779Z,95143.69
2019-02-02T23:27:54.088Z,95150.85
2019-02-02T23:30:23.419Z,95139.53
2019-02-02T23:32:52.852Z,95131.03
2019-02-02T23:35:22.229Z,95136.41
2019-02-02T23:37:51.607Z,95146.94
2019-02-02T23:40:20.989Z,95148.08
2019-02-02T23:42:50.534Z,95146.55
2019-02-02T23:45:19.854Z,95135.35
2019-02-02T23:47:49.818Z,95113.19
2019-02-02T23:50:19.201Z,95110.33
2019-02-02T23:52:49.895Z,95114.94
2019-02-02T23:55:19.598Z,95113.60
2019-02-02T23:57:48.997Z,95112.67
